Time;durP1;ratioP1;P1;durP2;ratioP2;P2;SDS_P1;SDS_P2;PMS_P1;PMS_P2;Temp;Humidity;BMP_temperature;BMP_pressure;BME280_temperature;BME280_humidity;BME280_pressure;Samples;Min_cycle;Max_cycle;Signal;HPM_P1;HPM_P2
2022/06/13 00:01:27;;;;;;;33.53;8.67;;;21.50;33.60;;;;;;4988076;28;20475;-71
2022/06/13 00:03:54;;;;;;;29.53;8.60;;;21.50;34.00;;;;;;4988735;28;20472;-71
2022/06/13 00:06:22;;;;;;;30.33;8.50;;;21.50;34.00;;;;;;4988201;28;20480;-71
2022/06/13 00:08:50;;;;;;;31.10;7.47;;;21.40;34.30;;;;;;4988818;28;20465;-71
2022/06/13 00:11:21;;;;;;;31.90;7.87;;;21.50;33.40;;;;;;4988107;28;20468;-71
2022/06/13 00:13:50;;;;;;;28.30;8.33;;;21.50;33.00;;;;;;4988884;28;20465;-71
2022/06/13 00:16:17;;;;;;;26.50;7.93;;;21.50;33.40;;;;;;4988644;28;20486;-71
2022/06/13 00:18:47;;;;;;;26.73;8.80;;;21.60;33.70;;;;;;4987078;28;20467;-71
2022/06/13 00:21:15;;;;;;;27.53;7.40;;;21.60;33.80;;;;;;4987796;28;20965;-71
2022/06/13 00:23:42;;;;;;;28.10;7.33;;;21.70;34.00;;;;;;4988811;28;20491;-71
2022/06/13 00:26:10;;;;;;;27.60;7.93;;;21.70;33.80;;;;;;4988293;28;20457;-71
2022/06/13 00:28:37;;;;;;;26.30;7.03;;;21.60;33.50;;;;;;4987747;28;20491;-71
2022/06/13 00:31:03;;;;;;;28.13;8.00;;;21.50;33.40;;;;;;4982261;28;20488;-71
2022/06/13 00:33:30;;;;;;;29.47;6.93;;;21.40;33.50;;;;;;4987726;28;20540;-71
2022/06/13 00:35:57;;;;;;;23.70;5.77;;;21.30;33.40;;;;;;4988094;28;20487;-71
2022/06/13 00:38:24;;;;;;;25.13;5.23;;;21.30;33.70;;;;;;4991226;28;20464;-71
2022/06/13 00:40:51;;;;;;;24.27;3.70;;;21.30;33.20;;;;;;4990813;28;20837;-71
2022/06/13 00:43:19;;;;;;;25.20;3.60;;;21.30;32.30;;;;;;4990998;28;20496;-71
2022/06/13 00:45:46;;;;;;;23.60;3.50;;;21.20;31.70;;;;;;4990338;28;20461;-71
2022/06/13 00:48:14;;;;;;;23.97;3.70;;;21.00;31.70;;;;;;4991708;28;20825;-71
2022/06/13 00:50:47;;;;;;;23.90;3.63;;;20.90;31.80;;;;;;4990089;28;20471;-71
2022/06/13 00:53:19;;;;;;;25.10;3.00;;;20.80;32.30;;;;;;4991559;28;20453;-71
2022/06/13 00:55:50;;;;;;;23.43;3.37;;;20.70;31.90;;;;;;4991121;28;20488;-71
2022/06/13 00:58:19;;;;;;;25.40;3.33;;;20.60;32.10;;;;;;4991280;28;20890;-71
2022/06/13 01:00:50;;;;;;;23.90;4.10;;;20.50;31.80;;;;;;4990792;28;20479;-71
2022/06/13 01:03:17;;;;;;;23.30;3.40;;;20.40;32.00;;;;;;4991087;28;20445;-71
2022/06/13 01:05:47;;;;;;;25.97;3.70;;;20.40;31.80;;;;;;4990769;28;20465;-71
2022/06/13 01:08:15;;;;;;;22.80;3.47;;;20.40;32.60;;;;;;4990861;28;20794;-72
2022/06/13 01:13:47;;;;;;;23.60;3.60;;;20.30;32.80;;;;;;4990932;28;20499;-71
2022/06/13 01:16:27;;;;;;;23.60;3.70;;;20.30;33.30;;;;;;4990480;28;20480;-71
2022/06/13 01:19:24;;;;;;;24.43;3.83;;;20.20;33.20;;;;;;4988552;28;21014;-72
2022/06/13 01:22:03;;;;;;;26.13;3.90;;;20.20;33.60;;;;;;4988675;28;21005;-72
2022/06/13 01:24:47;;;;;;;23.43;3.57;;;20.10;33.80;;;;;;4990831;28;20727;-71
2022/06/13 01:27:39;;;;;;;22.67;3.53;;;20.10;34.00;;;;;;4990364;28;20480;-71
2022/06/13 01:30:36;;;;;;;22.90;4.17;;;20.00;34.30;;;;;;4990598;28;20471;-72
2022/06/13 01:33:11;;;;;;;22.87;3.13;;;19.90;34.60;;;;;;4984045;28;20471;-71
2022/06/13 01:35:49;;;;;;;22.50;3.53;;;19.90;34.40;;;;;;4990246;28;21182;-71
2022/06/13 01:38:32;;;;;;;24.13;3.73;;;19.90;34.60;;;;;;4989470;28;20507;-71
2022/06/13 01:41:11;;;;;;;23.43;3.00;;;19.90;35.00;;;;;;4989518;28;20452;-72
2022/06/13 01:43:50;;;;;;;24.57;3.97;;;19.80;35.20;;;;;;4990162;28;20437;-71
2022/06/13 01:46:28;;;;;;;22.40;3.63;;;19.80;35.30;;;;;;4989257;28;20464;-72
2022/06/13 01:49:05;;;;;;;24.03;4.13;;;19.80;35.60;;;;;;4988435;28;20468;-72
2022/06/13 01:51:38;;;;;;;25.53;3.63;;;19.70;35.70;;;;;;4989336;28;20536;-71
2022/06/13 01:54:16;;;;;;;23.13;3.50;;;19.70;36.10;;;;;;4990585;28;20453;-72
2022/06/13 01:56:52;;;;;;;23.27;3.40;;;19.70;36.10;;;;;;4990585;28;20476;-71
2022/06/13 01:59:23;;;;;;;24.43;3.80;;;19.60;35.90;;;;;;4989098;28;20456;-71
2022/06/13 02:01:55;;;;;;;23.30;3.60;;;19.70;36.20;;;;;;4989725;28;21000;-71
2022/06/13 02:04:26;;;;;;;26.70;3.50;;;19.60;36.20;;;;;;4989447;28;20464;-72
2022/06/13 02:06:58;;;;;;;23.70;3.70;;;19.60;36.30;;;;;;4989863;28;20476;-72
2022/06/13 02:09:28;;;;;;;24.20;3.30;;;19.60;36.40;;;;;;4989843;28;20488;-72
2022/06/13 02:11:56;;;;;;;23.00;3.67;;;19.60;36.50;;;;;;4989096;28;20453;-72
2022/06/13 02:14:30;;;;;;;23.97;4.00;;;19.60;36.60;;;;;;4989959;28;20979;-72
2022/06/13 02:17:04;;;;;;;26.10;4.13;;;19.60;36.80;;;;;;4987911;28;21212;-72
2022/06/13 02:19:35;;;;;;;22.50;3.33;;;19.60;36.90;;;;;;4989772;28;20472;-71
2022/06/13 02:22:08;;;;;;;22.30;3.33;;;19.60;36.90;;;;;;4988569;28;20560;-72
2022/06/13 02:24:43;;;;;;;23.30;3.40;;;19.50;37.10;;;;;;4987737;28;20460;-71
2022/06/13 02:27:13;;;;;;;24.53;3.40;;;19.50;37.30;;;;;;4988720;28;20480;-71
2022/06/13 02:29:45;;;;;;;24.97;3.80;;;19.40;36.90;;;;;;4989381;28;20464;-72
2022/06/13 02:32:16;;;;;;;22.20;3.10;;;19.40;36.90;;;;;;4989135;28;21016;-71
2022/06/13 02:34:47;;;;;;;22.53;3.50;;;19.30;37.30;;;;;;4989077;28;20828;-71
2022/06/13 02:37:18;;;;;;;23.37;3.87;;;19.30;37.50;;;;;;4987894;28;20485;-71
2022/06/13 02:39:52;;;;;;;23.50;3.67;;;19.30;38.30;;;;;;4987400;28;20520;-71
2022/06/13 02:42:23;;;;;;;24.43;3.60;;;19.20;38.40;;;;;;4989481;28;20825;-71
2022/06/13 02:44:53;;;;;;;22.93;3.70;;;19.20;38.40;;;;;;4989313;28;20460;-71
2022/06/13 02:47:28;;;;;;;24.40;4.20;;;19.20;38.60;;;;;;4989231;28;20490;-71
2022/06/13 02:53:23;;;;;;;26.00;3.63;;;19.20;38.70;;;;;;4985097;28;20819;-71
2022/06/13 02:55:59;;;;;;;24.20;3.50;;;19.20;38.50;;;;;;4989199;28;20479;-71
2022/06/13 02:58:34;;;;;;;24.60;3.73;;;19.20;38.40;;;;;;4988818;28;20449;-71
2022/06/13 03:01:08;;;;;;;23.80;4.17;;;19.10;38.50;;;;;;4988542;28;20487;-71
2022/06/13 03:07:06;;;;;;;26.57;3.90;;;19.10;39.00;;;;;;4985388;28;20511;-71
2022/06/13 03:09:37;;;;;;;25.13;3.87;;;19.00;38.90;;;;;;4988805;28;20463;-71
2022/06/13 03:12:10;;;;;;;23.63;3.93;;;19.00;39.10;;;;;;4989390;28;20452;-71
2022/06/13 03:14:44;;;;;;;23.77;3.90;;;19.00;39.50;;;;;;4989077;28;20845;-71
2022/06/13 03:17:26;;;;;;;23.80;3.90;;;19.00;39.70;;;;;;4986725;28;20480;-71
2022/06/13 03:19:57;;;;;;;24.97;4.53;;;19.10;39.80;;;;;;4988608;28;20456;-71
2022/06/13 03:22:30;;;;;;;26.70;4.47;;;19.00;39.40;;;;;;4989345;28;20445;-71
2022/06/13 03:25:07;;;;;;;23.43;4.20;;;19.10;39.50;;;;;;4987856;28;20499;-71
2022/06/13 03:27:39;;;;;;;25.20;4.80;;;19.10;39.40;;;;;;4987935;28;21000;-72
2022/06/13 03:30:10;;;;;;;25.70;5.10;;;19.10;39.20;;;;;;4988691;28;20457;-71
2022/06/13 03:32:42;;;;;;;25.30;4.90;;;19.20;39.30;;;;;;4988474;28;20464;-71
2022/06/13 03:35:14;;;;;;;24.90;4.70;;;19.20;39.50;;;;;;4986002;28;20495;-72
2022/06/13 03:37:46;;;;;;;26.63;4.73;;;19.20;39.50;;;;;;4988774;28;20487;-71
2022/06/13 03:40:19;;;;;;;24.40;4.87;;;19.20;39.80;;;;;;4988596;28;20445;-71
2022/06/13 03:42:51;;;;;;;23.97;5.27;;;19.20;40.60;;;;;;4988263;28;20468;-71
2022/06/13 03:45:23;;;;;;;25.47;5.00;;;19.20;39.90;;;;;;4987511;28;20461;-71
2022/06/13 03:47:53;;;;;;;24.90;5.03;;;19.30;40.30;;;;;;4988435;28;20484;-72
2022/06/13 03:50:26;;;;;;;27.07;5.17;;;19.30;39.90;;;;;;4988673;28;20461;-71
2022/06/13 03:53:01;;;;;;;26.43;4.77;;;19.30;40.20;;;;;;4989079;28;20461;-71
2022/06/13 03:55:32;;;;;;;25.17;4.60;;;19.30;39.90;;;;;;4987410;28;20841;-71
2022/06/13 03:58:05;;;;;;;24.40;4.50;;;19.20;40.10;;;;;;4988432;28;20476;-71
2022/06/13 04:00:38;;;;;;;24.67;4.70;;;19.20;40.00;;;;;;4987975;28;20476;-71
2022/06/13 04:03:06;;;;;;;27.90;4.20;;;19.20;39.60;;;;;;4985130;28;20464;-70
2022/06/13 04:05:38;;;;;;;25.97;4.30;;;19.20;39.60;;;;;;4987784;28;21035;-71
2022/06/13 04:08:09;;;;;;;25.17;5.07;;;19.30;39.80;;;;;;4983883;28;20476;-64
2022/06/13 04:10:47;;;;;;;25.10;5.20;;;19.40;39.30;;;;;;4985457;28;20468;-61
2022/06/13 04:13:34;;;;;;;25.07;4.70;;;19.30;39.80;;;;;;4991058;28;20471;-62
2022/06/13 04:16:14;;;;;;;25.83;4.57;;;19.30;40.20;;;;;;4991650;28;20471;-61
2022/06/13 04:18:57;;;;;;;24.07;4.40;;;19.30;40.10;;;;;;4981246;28;20480;-60
2022/06/13 04:21:34;;;;;;;24.00;4.37;;;19.30;39.90;;;;;;4982401;28;20466;-60
2022/06/13 04:24:17;;;;;;;24.33;3.67;;;19.30;39.60;;;;;;4972387;28;20465;-61
2022/06/13 04:26:51;;;;;;;23.67;4.37;;;19.30;39.70;;;;;;4982830;28;20477;-61
2022/06/13 04:29:26;;;;;;;24.63;4.20;;;19.30;39.50;;;;;;4972242;28;21008;-61
2022/06/13 04:31:58;;;;;;;26.00;4.53;;;19.30;39.40;;;;;;4988036;28;20472;-62
2022/06/13 04:34:31;;;;;;;25.97;4.43;;;19.30;39.50;;;;;;4990200;28;20469;-60
2022/06/13 04:36:59;;;;;;;24.73;4.10;;;19.40;39.50;;;;;;4991143;28;20836;-61
2022/06/13 04:39:30;;;;;;;25.83;4.80;;;19.40;39.40;;;;;;4990585;28;20464;-61
2022/06/13 04:42:00;;;;;;;23.87;3.83;;;19.50;39.30;;;;;;4991165;28;20476;-62
2022/06/13 04:44:30;;;;;;;25.20;4.47;;;19.50;39.00;;;;;;4989955;28;20465;-61
2022/06/13 04:46:58;;;;;;;24.00;3.93;;;19.50;39.10;;;;;;4990557;28;20572;-61
2022/06/13 04:49:29;;;;;;;25.13;3.90;;;19.50;39.20;;;;;;4990740;28;20463;-60
2022/06/13 04:51:59;;;;;;;24.87;3.80;;;19.60;39.60;;;;;;4989003;28;20461;-61
2022/06/13 04:54:32;;;;;;;24.10;3.80;;;19.70;39.00;;;;;;4987675;28;20465;-60
2022/06/13 04:57:00;;;;;;;27.00;4.40;;;19.80;38.70;;;;;;4988810;28;20499;-61
2022/06/13 04:59:28;;;;;;;24.57;3.97;;;20.00;38.60;;;;;;4989946;28;20538;-61
2022/06/13 05:01:56;;;;;;;25.10;4.77;;;20.10;38.40;;;;;;4989180;28;20468;-60
2022/06/13 05:04:26;;;;;;;24.40;4.30;;;20.20;38.30;;;;;;4987938;28;20995;-61
2022/06/13 05:06:55;;;;;;;25.33;4.50;;;20.30;38.00;;;;;;4988533;28;21001;-61
2022/06/13 05:09:25;;;;;;;27.70;4.20;;;20.60;37.50;;;;;;4990005;28;20456;-61
2022/06/13 05:12:04;;;;;;;24.73;4.07;;;20.80;37.10;;;;;;4991194;28;20453;-60
2022/06/13 05:14:36;;;;;;;25.37;4.90;;;21.20;36.20;;;;;;4988387;28;20468;-60
2022/06/13 05:17:26;;;;;;;27.43;4.77;;;21.20;35.20;;;;;;4989987;28;20488;-61
2022/06/13 05:20:00;;;;;;;25.67;4.43;;;21.20;35.00;;;;;;4988296;28;20457;-61
2022/06/13 05:22:49;;;;;;;25.27;4.20;;;21.30;34.80;;;;;;4988466;28;20467;-61
2022/06/13 05:25:27;;;;;;;25.40;4.37;;;21.30;34.50;;;;;;4988817;28;20468;-60
2022/06/13 05:27:55;;;;;;;25.60;5.07;;;21.30;34.20;;;;;;4990814;28;20480;-60
2022/06/13 05:30:23;;;;;;;28.60;4.57;;;21.30;34.20;;;;;;4988478;28;20464;-60
2022/06/13 05:32:50;;;;;;;26.03;4.67;;;21.20;34.20;;;;;;4987450;28;20491;-61
2022/06/13 05:35:21;;;;;;;26.43;4.70;;;21.20;34.20;;;;;;4988082;28;20788;-60
2022/06/13 05:37:48;;;;;;;25.13;4.67;;;21.20;34.00;;;;;;4989162;28;20476;-60
2022/06/13 05:40:17;;;;;;;25.03;4.53;;;21.20;34.10;;;;;;4990049;28;20472;-60
2022/06/13 05:42:45;;;;;;;26.10;4.13;;;21.10;34.20;;;;;;4988799;28;20469;-60
2022/06/13 05:45:14;;;;;;;27.27;4.50;;;21.10;33.80;;;;;;4988662;28;20494;-60
2022/06/13 05:47:42;;;;;;;26.23;3.67;;;21.10;33.70;;;;;;4988488;28;20469;-61
2022/06/13 05:50:14;;;;;;;26.97;4.60;;;21.00;33.60;;;;;;4988914;28;20464;-60
2022/06/13 05:52:41;;;;;;;28.17;4.07;;;21.00;33.90;;;;;;4988302;28;20507;-61
2022/06/13 05:55:09;;;;;;;24.70;3.80;;;21.00;33.60;;;;;;4988800;28;20958;-60
2022/06/13 05:57:37;;;;;;;23.73;3.70;;;20.90;33.60;;;;;;4986898;28;20488;-60
2022/06/13 06:00:05;;;;;;;26.30;4.30;;;20.90;33.50;;;;;;4988632;28;20452;-60
2022/06/13 06:02:33;;;;;;;26.27;4.47;;;20.90;33.60;;;;;;4987688;28;20473;-64
2022/06/13 06:05:00;;;;;;;25.13;3.90;;;20.80;34.10;;;;;;4988898;28;20500;-64
2022/06/13 06:10:50;;;;;;;26.73;4.13;;;21.00;34.20;;;;;;4987877;28;20416;-65
2022/06/13 06:13:17;;;;;;;26.30;4.00;;;21.20;33.30;;;;;;4988590;28;20461;-65
2022/06/13 06:15:46;;;;;;;25.30;4.27;;;21.20;32.70;;;;;;4988112;28;20475;-65
2022/06/13 06:18:15;;;;;;;25.37;4.53;;;21.20;32.80;;;;;;4986566;28;20481;-65
2022/06/13 06:20:42;;;;;;;24.80;4.60;;;21.10;33.00;;;;;;4987959;28;20460;-65
2022/06/13 06:23:10;;;;;;;26.30;4.40;;;21.00;33.50;;;;;;4988339;28;20461;-64
2022/06/13 06:25:37;;;;;;;26.37;4.00;;;20.90;33.80;;;;;;4987940;28;20460;-65
2022/06/13 06:28:05;;;;;;;24.30;4.63;;;20.90;33.60;;;;;;4987224;28;20647;-64
2022/06/13 06:30:32;;;;;;;25.40;4.13;;;21.00;34.10;;;;;;4987896;28;20840;-67
2022/06/13 06:32:59;;;;;;;26.17;4.10;;;22.10;33.70;;;;;;4987125;28;20463;-68
2022/06/13 06:35:30;;;;;;;25.70;4.60;;;23.00;30.00;;;;;;4987371;28;20463;-68
2022/06/13 06:37:59;;;;;;;27.27;4.23;;;23.60;28.20;;;;;;4986460;28;20579;-68
2022/06/13 06:40:27;;;;;;;26.13;4.00;;;23.50;27.00;;;;;;4988252;28;20555;-68
2022/06/13 06:42:54;;;;;;;28.10;4.33;;;23.30;27.00;;;;;;4951109;28;1082510;-68
2022/06/13 06:45:21;;;;;;;26.67;4.40;;;23.20;27.20;;;;;;4989398;28;20197;-68
2022/06/13 06:47:48;;;;;;;26.77;4.03;;;23.10;26.70;;;;;;4988174;28;20472;-68
2022/06/13 06:50:18;;;;;;;28.00;4.13;;;23.30;26.00;;;;;;4988819;28;20475;-68
2022/06/13 06:52:46;;;;;;;29.83;4.07;;;23.30;24.10;;;;;;4988592;28;20717;-68
2022/06/13 07:00:45;;;;;;;28.80;4.23;;;23.90;20.50;;;;;;4988363;28;20522;-68
2022/06/13 07:03:11;;;;;;;29.20;4.30;;;23.60;20.00;;;;;;4988561;28;20492;-68
2022/06/13 07:05:38;;;;;;;35.07;4.93;;;23.50;20.10;;;;;;4987663;28;20456;-67
2022/06/13 07:08:07;;;;;;;30.07;4.27;;;23.30;20.00;;;;;;4988693;28;20474;-68
2022/06/13 07:10:34;;;;;;;28.10;4.63;;;23.10;20.20;;;;;;4988382;28;20464;-68
2022/06/13 07:13:01;;;;;;;31.30;5.10;;;23.00;20.70;;;;;;4988347;28;20453;-68
2022/06/13 07:15:28;;;;;;;31.73;5.03;;;22.90;20.70;;;;;;4988052;28;20464;-68
2022/06/13 07:17:55;;;;;;;32.90;4.70;;;22.80;21.00;;;;;;4988275;28;20492;-67
2022/06/13 07:20:21;;;;;;;29.20;4.47;;;23.40;21.30;;;;;;4988372;28;20457;-67
2022/06/13 07:22:50;;;;;;;29.00;3.93;;;25.40;19.00;;;;;;4987892;28;20468;-67
2022/06/13 07:25:31;;;;;;;29.50;3.93;;;27.50;14.30;;;;;;4987454;28;20465;-67
2022/06/13 07:27:58;;;;;;;30.30;4.20;;;29.00;9.40;;;;;;4987300;28;20492;-67
2022/06/13 07:30:29;;;;;;;29.07;3.43;;;28.90;9.00;;;;;;4987520;28;20831;-67
2022/06/13 07:32:57;;;;;;;33.67;4.07;;;28.50;9.50;;;;;;4988131;28;20464;-67
2022/06/13 07:35:26;;;;;;;37.53;4.20;;;28.30;9.40;;;;;;4987571;28;20461;-67
2022/06/13 07:40:38;;;;;;;27.17;3.30;;;32.60;5.80;;;;;;4988217;28;20475;-67
2022/06/13 07:43:09;;;;;;;27.27;3.53;;;36.70;1.00;;;;;;4987881;28;20468;-67
2022/06/13 07:45:39;;;;;;;28.60;3.37;;;39.60;1.00;;;;;;4987976;28;20826;-67
2022/06/13 07:48:07;;;;;;;26.57;3.03;;;41.90;1.00;;;;;;4985810;28;20491;-68
2022/06/13 07:50:34;;;;;;;26.90;2.70;;;43.70;1.00;;;;;;4992582;28;20468;-68
2022/06/13 07:53:01;;;;;;;28.10;2.50;;;44.90;1.00;;;;;;4992112;28;20467;-68
2022/06/13 07:55:31;;;;;;;24.33;2.60;;;46.00;1.00;;;;;;4991815;28;21047;-68
2022/06/13 07:57:59;;;;;;;25.03;2.77;;;47.10;1.00;;;;;;4991849;28;20496;-68
2022/06/13 08:00:29;;;;;;;25.10;2.73;;;48.00;1.00;;;;;;4990327;28;20519;-68
2022/06/13 08:02:56;;;;;;;24.97;3.00;;;48.40;1.00;;;;;;4991555;28;20457;-68
2022/06/13 08:05:23;;;;;;;24.93;3.13;;;49.00;1.00;;;;;;4991376;28;20461;-68
2022/06/13 08:07:50;;;;;;;23.50;2.70;;;49.70;1.00;;;;;;4992742;28;20508;-68
2022/06/13 08:10:17;;;;;;;22.00;2.40;;;50.30;1.00;;;;;;4991674;28;20472;-67
2022/06/13 08:12:45;;;;;;;21.73;2.27;;;50.70;1.00;;;;;;4992035;28;20481;-68
2022/06/13 08:15:15;;;;;;;23.20;2.23;;;51.00;1.00;;;;;;4991345;28;20465;-68
2022/06/13 08:17:42;;;;;;;21.40;2.37;;;51.30;1.00;;;;;;4991403;28;20495;-68
2022/06/13 08:20:10;;;;;;;21.73;2.30;;;51.30;1.00;;;;;;4990243;28;20625;-68
2022/06/13 08:22:42;;;;;;;22.33;2.47;;;51.20;1.00;;;;;;4991809;28;20504;-68
2022/06/13 08:25:09;;;;;;;22.27;2.60;;;51.30;1.00;;;;;;4991793;28;20464;-69
2022/06/13 08:27:36;;;;;;;22.00;2.37;;;51.80;1.00;;;;;;4991077;28;20477;-68
2022/06/13 08:30:03;;;;;;;24.30;2.43;;;52.00;1.00;;;;;;4991416;28;20859;-68
2022/06/13 08:32:31;;;;;;;23.53;2.63;;;52.50;1.00;;;;;;4990060;28;20472;-68
2022/06/13 08:34:58;;;;;;;21.87;3.10;;;52.80;1.00;;;;;;4991554;28;20968;-68
2022/06/13 08:37:25;;;;;;;20.87;2.50;;;53.00;1.00;;;;;;4991172;28;20507;-69
2022/06/13 08:39:51;;;;;;;24.20;2.53;;;53.50;1.00;;;;;;4991277;28;20460;-69
2022/06/13 08:42:24;;;;;;;21.50;2.40;;;53.80;1.00;;;;;;4990464;28;20479;-69
2022/06/13 08:44:59;;;;;;;20.80;2.63;;;54.10;1.00;;;;;;4990776;28;20464;-69
2022/06/13 08:47:37;;;;;;;21.00;2.30;;;54.40;1.00;;;;;;4990274;28;20479;-68
2022/06/13 08:50:16;;;;;;;21.60;2.80;;;54.90;1.00;;;;;;4991863;28;20444;-68
2022/06/13 08:52:48;;;;;;;20.77;2.40;;;55.50;1.00;;;;;;4990824;28;20818;-68
2022/06/13 08:55:23;;;;;;;21.10;2.77;;;55.60;1.00;;;;;;4992235;28;20464;-69
2022/06/13 08:58:04;;;;;;;21.37;2.73;;;55.30;1.00;;;;;;4990943;28;20495;-68
2022/06/13 09:00:33;;;;;;;20.30;2.37;;;55.30;1.00;;;;;;4990636;28;20952;-68
2022/06/13 09:03:09;;;;;;;21.63;2.30;;;55.30;1.00;;;;;;4989623;28;20491;-68
2022/06/13 09:05:39;;;;;;;21.20;2.67;;;55.30;1.00;;;;;;4990525;28;20455;-69
2022/06/13 09:08:12;;;;;;;23.30;2.60;;;54.90;1.00;;;;;;4991482;28;20483;-69
2022/06/13 09:10:47;;;;;;;21.90;2.87;;;54.60;1.00;;;;;;4990559;28;20465;-69
2022/06/13 09:13:19;;;;;;;22.13;2.80;;;54.60;1.00;;;;;;4990221;28;20451;-68
2022/06/13 09:15:49;;;;;;;22.60;2.87;;;54.30;1.00;;;;;;4991032;28;20448;-68
2022/06/13 09:18:30;;;;;;;20.70;2.57;;;53.70;1.00;;;;;;4991354;28;20492;-69
2022/06/13 09:21:01;;;;;;;21.93;2.53;;;51.90;1.00;;;;;;4990456;28;20456;-68
2022/06/13 09:23:36;;;;;;;22.87;3.10;;;49.80;1.00;;;;;;4989403;28;20463;-68
2022/06/13 09:26:10;;;;;;;22.10;2.90;;;47.60;1.00;;;;;;4989551;28;21163;-68
2022/06/13 09:28:44;;;;;;;23.13;3.00;;;45.50;1.00;;;;;;4990602;28;20448;-68
2022/06/13 09:31:16;;;;;;;23.80;3.00;;;43.80;1.00;;;;;;4989615;28;20843;-68
2022/06/13 09:33:49;;;;;;;25.63;2.83;;;42.20;1.00;;;;;;4990683;28;20515;-68
2022/06/13 09:36:20;;;;;;;24.90;3.23;;;40.70;1.00;;;;;;4990188;28;20530;-69
2022/06/13 09:38:51;;;;;;;27.20;3.43;;;39.20;1.00;;;;;;4990242;28;20864;-69
2022/06/13 09:41:50;;;;;;;29.53;3.03;;;38.00;1.00;;;;;;4990266;28;20460;-68
2022/06/13 09:44:26;;;;;;;27.63;3.90;;;36.80;1.00;;;;;;4984270;28;20567;-68
2022/06/13 09:46:59;;;;;;;26.77;3.40;;;35.80;1.00;;;;;;4989724;28;20545;-68
2022/06/13 09:49:37;;;;;;;24.63;2.80;;;35.10;1.00;;;;;;4989957;28;20447;-68
2022/06/13 09:52:13;;;;;;;26.20;3.20;;;34.50;1.00;;;;;;4989948;28;20499;-68
2022/06/13 09:54:46;;;;;;;26.57;3.73;;;34.00;1.00;;;;;;4989287;28;20464;-68
2022/06/13 09:57:22;;;;;;;25.60;3.23;;;33.70;1.00;;;;;;4990421;28;20485;-68
2022/06/13 10:00:11;;;;;;;28.43;4.40;;;33.30;1.00;;;;;;4990171;28;20469;-68
2022/06/13 10:02:48;;;;;;;27.37;3.20;;;32.90;1.00;;;;;;4989842;28;20701;-68
2022/06/13 10:05:33;;;;;;;26.83;3.73;;;32.50;1.00;;;;;;4989045;28;20452;-68
2022/06/13 10:08:19;;;;;;;29.17;3.50;;;32.10;1.00;;;;;;4989575;28;20485;-68
2022/06/13 10:10:54;;;;;;;26.33;4.10;;;31.90;1.00;;;;;;4988943;28;20946;-68
2022/06/13 10:13:31;;;;;;;26.93;3.23;;;31.70;1.00;;;;;;4989966;28;20471;-68
2022/06/13 10:16:08;;;;;;;26.40;3.67;;;31.50;1.00;;;;;;4989000;28;20455;-68
2022/06/13 10:19:03;;;;;;;30.50;3.70;;;31.20;1.00;;;;;;4989493;28;20482;-68
2022/06/13 10:21:38;;;;;;;27.83;3.23;;;30.90;1.00;;;;;;4989281;28;20472;-68
2022/06/13 10:24:18;;;;;;;28.87;3.27;;;30.70;1.00;;;;;;4989592;28;21037;-68
2022/06/13 10:26:54;;;;;;;26.90;4.27;;;30.50;1.30;;;;;;4988278;28;20476;-68
2022/06/13 10:29:37;;;;;;;26.77;3.60;;;30.20;1.20;;;;;;4988065;28;20445;-68
2022/06/13 10:32:17;;;;;;;28.20;3.50;;;29.90;1.60;;;;;;4987197;28;20492;-68
2022/06/13 10:34:59;;;;;;;27.10;3.30;;;29.70;1.30;;;;;;4988912;28;20460;-68
2022/06/13 10:37:36;;;;;;;25.93;3.10;;;29.40;1.00;;;;;;4988846;28;20477;-68
2022/06/13 10:40:06;;;;;;;26.33;2.97;;;29.00;1.00;;;;;;4987498;28;20465;-68
2022/06/13 10:42:35;;;;;;;26.30;3.20;;;28.70;1.70;;;;;;4988516;28;20984;-68
2022/06/13 10:45:04;;;;;;;30.10;3.20;;;28.50;1.90;;;;;;4988208;28;20471;-68
2022/06/13 10:47:38;;;;;;;27.33;3.80;;;28.40;1.40;;;;;;4989017;28;20824;-68
2022/06/13 10:50:11;;;;;;;28.20;3.10;;;28.20;2.10;;;;;;4987454;28;20471;-68
2022/06/13 10:52:45;;;;;;;27.30;3.50;;;28.10;2.60;;;;;;4989071;28;20445;-68
2022/06/13 10:55:16;;;;;;;28.67;3.43;;;28.00;4.20;;;;;;4988780;28;20476;-68
2022/06/13 10:57:49;;;;;;;29.50;3.97;;;27.80;3.20;;;;;;4988480;28;20834;-68
2022/06/13 11:00:21;;;;;;;26.50;3.70;;;27.60;3.30;;;;;;4986939;28;20464;-68
2022/06/13 11:02:48;;;;;;;28.97;4.03;;;27.60;3.30;;;;;;4988940;28;20441;-68
2022/06/13 11:08:38;;;;;;;29.97;3.40;;;27.20;3.10;;;;;;4968598;28;20421;-68
2022/06/13 11:11:14;;;;;;;26.97;3.43;;;27.00;3.10;;;;;;4975552;28;20460;-68
2022/06/13 11:13:43;;;;;;;27.60;4.07;;;26.80;2.60;;;;;;4988838;28;20796;-68
2022/06/13 11:24:46;;;;;;;27.03;3.83;;;26.40;5.00;;;;;;4988383;28;20451;-68
2022/06/13 11:30:46;;;;;;;26.80;3.20;;;26.40;5.90;;;;;;4988014;28;20448;-68
2022/06/13 11:33:32;;;;;;;31.53;4.00;;;26.30;4.10;;;;;;4925624;29;20535;-68
2022/06/13 11:36:01;;;;;;;29.90;3.83;;;26.10;4.20;;;;;;4985392;28;20457;-68
2022/06/13 11:38:30;;;;;;;31.80;4.10;;;26.00;5.20;;;;;;4988001;28;20534;-68
2022/06/13 11:41:16;;;;;;;25.70;3.50;;;26.00;5.90;;;;;;4987507;28;20832;-68
2022/06/13 11:43:48;;;;;;;28.30;3.80;;;26.00;6.60;;;;;;4987027;28;20483;-68
2022/06/13 11:46:43;;;;;;;29.07;3.30;;;25.90;4.00;;;;;;4987460;28;20457;-68
2022/06/13 11:49:28;;;;;;;26.63;3.50;;;25.90;5.40;;;;;;4987863;28;20432;-68
2022/06/13 11:51:57;;;;;;;27.20;3.50;;;25.80;6.00;;;;;;4985822;28;20456;-67
2022/06/13 11:54:28;;;;;;;25.77;3.27;;;25.70;5.20;;;;;;4987407;28;20540;-68
2022/06/13 11:57:27;;;;;;;26.57;3.27;;;25.70;5.30;;;;;;4986446;28;20520;-68
2022/06/13 11:59:58;;;;;;;26.70;2.67;;;25.60;6.00;;;;;;4988414;28;20441;-67
2022/06/13 12:02:28;;;;;;;31.43;4.17;;;25.50;5.30;;;;;;4985540;28;20860;-67
2022/06/13 12:04:57;;;;;;;30.37;3.97;;;25.50;5.40;;;;;;4988172;28;20460;-67
2022/06/13 12:07:28;;;;;;;26.63;3.37;;;25.50;5.10;;;;;;4986407;28;20524;-67
2022/06/13 12:09:57;;;;;;;28.10;3.80;;;25.20;5.10;;;;;;4987591;28;20471;-67
2022/06/13 12:12:27;;;;;;;26.27;3.30;;;25.10;5.50;;;;;;4987788;28;20479;-67
2022/06/13 12:14:55;;;;;;;26.43;2.83;;;25.10;6.30;;;;;;4986788;28;20460;-68
2022/06/13 12:17:27;;;;;;;29.97;3.33;;;25.10;6.90;;;;;;4986190;28;20487;-67
2022/06/13 12:20:01;;;;;;;27.47;3.43;;;25.10;5.90;;;;;;4982366;28;20461;-68
2022/06/13 12:22:35;;;;;;;27.70;3.00;;;25.20;6.30;;;;;;4988816;28;20960;-67
2022/06/13 12:25:10;;;;;;;26.27;3.30;;;25.20;6.00;;;;;;4985581;28;20468;-68
2022/06/13 12:27:46;;;;;;;27.60;3.30;;;25.20;5.50;;;;;;4968332;28;20485;-67
2022/06/13 12:30:39;;;;;;;28.10;2.97;;;25.20;6.20;;;;;;4967646;28;20886;-68
2022/06/13 12:33:18;;;;;;;28.10;2.60;;;25.20;4.80;;;;;;4970556;28;20468;-68
2022/06/13 12:36:07;;;;;;;28.17;3.73;;;25.10;5.60;;;;;;4973072;28;20955;-68
2022/06/13 12:38:53;;;;;;;31.00;3.00;;;25.10;5.50;;;;;;4989686;28;20479;-67
2022/06/13 12:41:28;;;;;;;32.63;3.70;;;25.10;5.40;;;;;;4990591;28;20944;-68
2022/06/13 12:44:28;;;;;;;29.13;3.13;;;25.10;5.60;;;;;;4990914;28;20467;-67
2022/06/13 12:47:05;;;;;;;29.80;3.27;;;25.10;5.80;;;;;;4982724;28;20488;-67
2022/06/13 12:49:57;;;;;;;28.90;2.80;;;25.00;5.80;;;;;;4975377;28;20552;-68
2022/06/13 12:52:42;;;;;;;27.27;5.03;;;25.10;5.60;;;;;;4983440;28;20480;-68
2022/06/13 12:55:26;;;;;;;29.73;4.27;;;25.10;6.10;;;;;;4979659;28;20476;-68
2022/06/13 12:58:04;;;;;;;26.90;3.53;;;25.00;7.10;;;;;;4983447;28;20492;-68
2022/06/13 13:00:39;;;;;;;26.93;3.53;;;25.00;6.30;;;;;;4981747;28;20451;-68
2022/06/13 13:03:27;;;;;;;26.93;3.20;;;25.00;6.60;;;;;;4981182;28;22320;-68
2022/06/13 13:06:05;;;;;;;27.67;3.07;;;25.00;6.00;;;;;;4982790;28;20460;-68
2022/06/13 13:08:44;;;;;;;29.00;3.37;;;24.90;5.70;;;;;;4981359;28;20473;-68
2022/06/13 13:11:33;;;;;;;27.00;2.73;;;24.90;6.10;;;;;;4985294;28;20465;-68
2022/06/13 13:14:07;;;;;;;27.50;3.20;;;24.90;5.20;;;;;;4991072;28;21064;-68
2022/06/13 13:16:44;;;;;;;27.40;3.50;;;24.80;5.70;;;;;;4990307;28;20476;-68
2022/06/13 13:19:26;;;;;;;27.10;2.60;;;24.90;5.30;;;;;;4989333;28;20480;-68
2022/06/13 13:21:58;;;;;;;27.37;3.03;;;24.90;5.70;;;;;;4989412;28;20645;-68
2022/06/13 13:24:40;;;;;;;27.70;3.40;;;24.90;4.20;;;;;;4982700;28;21235;-71
2022/06/13 13:27:10;;;;;;;27.50;3.23;;;24.90;4.80;;;;;;4979354;28;20492;-70
2022/06/13 13:29:47;;;;;;;29.33;3.17;;;24.90;5.10;;;;;;4989301;28;20464;-71
2022/06/13 13:32:25;;;;;;;28.10;4.00;;;24.80;4.90;;;;;;4988965;28;20481;-70
2022/06/13 13:35:01;;;;;;;28.40;3.30;;;24.80;5.50;;;;;;4987953;28;20946;-70
2022/06/13 13:37:34;;;;;;;26.70;2.83;;;24.80;4.90;;;;;;4969941;28;20493;-71
2022/06/13 13:40:10;;;;;;;27.13;3.20;;;24.80;5.40;;;;;;4977377;28;20507;-70
2022/06/13 13:42:44;;;;;;;31.10;3.47;;;24.80;6.40;;;;;;4990186;28;20483;-70
2022/06/13 13:45:33;;;;;;;27.73;3.67;;;24.90;5.50;;;;;;4988186;28;20991;-71
2022/06/13 13:48:11;;;;;;;27.40;2.83;;;24.80;4.70;;;;;;4990163;28;20575;-70